sensor_id;sensor_type;location;lat;lon;timestamp;P1;durP1;ratioP1;P2;durP2;ratioP2
26588;SDS011;14235;48.532;8.722;2022-08-21T00:00:05;2.10;;;1.90;;
26588;SDS011;14235;48.532;8.722;2022-08-21T00:02:33;3.05;;;2.10;;
26588;SDS011;14235;48.532;8.722;2022-08-21T00:04:59;2.38;;;2.10;;
26588;SDS011;14235;48.532;8.722;2022-08-21T00:07:25;4.53;;;2.05;;
26588;SDS011;14235;48.532;8.722;2022-08-21T00:09:51;2.70;;;2.13;;
26588;SDS011;14235;48.532;8.722;2022-08-21T00:12:17;2.33;;;2.10;;
26588;SDS011;14235;48.532;8.722;2022-08-21T00:14:43;3.15;;;2.17;;
26588;SDS011;14235;48.532;8.722;2022-08-21T00:17:08;3.30;;;2.00;;
26588;SDS011;14235;48.532;8.722;2022-08-21T00:19:34;2.20;;;2.00;;
26588;SDS011;14235;48.532;8.722;2022-08-21T00:22:00;2.42;;;2.20;;
26588;SDS011;14235;48.532;8.722;2022-08-21T00:24:27;2.25;;;2.05;;
26588;SDS011;14235;48.532;8.722;2022-08-21T00:26:53;2.95;;;2.20;;
26588;SDS011;14235;48.532;8.722;2022-08-21T00:29:19;2.83;;;1.92;;
26588;SDS011;14235;48.532;8.722;2022-08-21T00:31:45;2.42;;;2.22;;
26588;SDS011;14235;48.532;8.722;2022-08-21T00:34:11;1.98;;;1.88;;
26588;SDS011;14235;48.532;8.722;2022-08-21T00:36:37;2.42;;;1.73;;
26588;SDS011;14235;48.532;8.722;2022-08-21T00:39:04;2.42;;;2.22;;
26588;SDS011;14235;48.532;8.722;2022-08-21T00:41:31;3.30;;;2.00;;
26588;SDS011;14235;48.532;8.722;2022-08-21T00:43:57;2.45;;;1.73;;
26588;SDS011;14235;48.532;8.722;2022-08-21T00:46:23;4.82;;;2.17;;
26588;SDS011;14235;48.532;8.722;2022-08-21T00:48:49;4.68;;;1.90;;
26588;SDS011;14235;48.532;8.722;2022-08-21T00:51:17;2.20;;;2.00;;
26588;SDS011;14235;48.532;8.722;2022-08-21T00:53:48;3.00;;;2.03;;
26588;SDS011;14235;48.532;8.722;2022-08-21T00:56:17;2.30;;;2.10;;
26588;SDS011;14235;48.532;8.722;2022-08-21T00:58:43;2.33;;;2.20;;
26588;SDS011;14235;48.532;8.722;2022-08-21T01:01:09;2.40;;;2.20;;
26588;SDS011;14235;48.532;8.722;2022-08-21T01:03:36;2.88;;;2.45;;
26588;SDS011;14235;48.532;8.722;2022-08-21T01:06:02;2.17;;;2.08;;
26588;SDS011;14235;48.532;8.722;2022-08-21T01:08:29;3.53;;;2.42;;
26588;SDS011;14235;48.532;8.722;2022-08-21T01:10:55;3.38;;;2.10;;
26588;SDS011;14235;48.532;8.722;2022-08-21T01:13:22;2.30;;;2.10;;
26588;SDS011;14235;48.532;8.722;2022-08-21T01:15:50;2.20;;;2.10;;
26588;SDS011;14235;48.532;8.722;2022-08-21T01:18:17;3.13;;;2.30;;
26588;SDS011;14235;48.532;8.722;2022-08-21T01:20:45;2.35;;;2.00;;
26588;SDS011;14235;48.532;8.722;2022-08-21T01:23:30;3.67;;;1.90;;
26588;SDS011;14235;48.532;8.722;2022-08-21T01:25:55;3.95;;;1.88;;
26588;SDS011;14235;48.532;8.722;2022-08-21T01:28:21;2.10;;;1.90;;
26588;SDS011;14235;48.532;8.722;2022-08-21T01:30:47;2.30;;;1.80;;
26588;SDS011;14235;48.532;8.722;2022-08-21T01:33:16;4.30;;;1.77;;
26588;SDS011;14235;48.532;8.722;2022-08-21T01:35:43;2.10;;;1.90;;
26588;SDS011;14235;48.532;8.722;2022-08-21T01:38:08;3.20;;;2.10;;
26588;SDS011;14235;48.532;8.722;2022-08-21T01:40:34;2.03;;;1.92;;
26588;SDS011;14235;48.532;8.722;2022-08-21T01:43:00;1.92;;;1.83;;
26588;SDS011;14235;48.532;8.722;2022-08-21T01:45:25;2.13;;;2.03;;
26588;SDS011;14235;48.532;8.722;2022-08-21T01:47:51;2.05;;;1.90;;
26588;SDS011;14235;48.532;8.722;2022-08-21T01:50:18;1.88;;;1.67;;
26588;SDS011;14235;48.532;8.722;2022-08-21T01:52:45;3.15;;;2.08;;
26588;SDS011;14235;48.532;8.722;2022-08-21T01:55:11;2.20;;;1.83;;
26588;SDS011;14235;48.532;8.722;2022-08-21T01:57:38;2.60;;;2.17;;
26588;SDS011;14235;48.532;8.722;2022-08-21T02:00:05;4.60;;;2.30;;
26588;SDS011;14235;48.532;8.722;2022-08-21T02:02:31;3.75;;;1.98;;
26588;SDS011;14235;48.532;8.722;2022-08-21T02:04:56;2.17;;;1.92;;
26588;SDS011;14235;48.532;8.722;2022-08-21T02:07:22;2.00;;;1.90;;
26588;SDS011;14235;48.532;8.722;2022-08-21T02:09:48;1.98;;;1.80;;
26588;SDS011;14235;48.532;8.722;2022-08-21T02:12:14;3.50;;;2.20;;
26588;SDS011;14235;48.532;8.722;2022-08-21T02:14:39;2.92;;;1.92;;
26588;SDS011;14235;48.532;8.722;2022-08-21T02:17:05;3.22;;;2.00;;
26588;SDS011;14235;48.532;8.722;2022-08-21T02:19:31;2.28;;;2.10;;
26588;SDS011;14235;48.532;8.722;2022-08-21T02:21:56;2.33;;;1.85;;
26588;SDS011;14235;48.532;8.722;2022-08-21T02:24:22;2.30;;;2.10;;
26588;SDS011;14235;48.532;8.722;2022-08-21T02:26:47;2.13;;;2.00;;
26588;SDS011;14235;48.532;8.722;2022-08-21T02:29:13;2.65;;;1.90;;
26588;SDS011;14235;48.532;8.722;2022-08-21T02:31:38;3.42;;;1.95;;
26588;SDS011;14235;48.532;8.722;2022-08-21T02:34:04;2.55;;;2.17;;
26588;SDS011;14235;48.532;8.722;2022-08-21T02:36:30;2.67;;;2.00;;
26588;SDS011;14235;48.532;8.722;2022-08-21T02:38:55;2.30;;;2.10;;
26588;SDS011;14235;48.532;8.722;2022-08-21T02:41:21;4.15;;;2.20;;
26588;SDS011;14235;48.532;8.722;2022-08-21T02:43:48;2.15;;;2.00;;
26588;SDS011;14235;48.532;8.722;2022-08-21T02:46:15;2.25;;;2.08;;
26588;SDS011;14235;48.532;8.722;2022-08-21T02:48:42;2.17;;;2.05;;
26588;SDS011;14235;48.532;8.722;2022-08-21T02:51:10;6.50;;;1.95;;
26588;SDS011;14235;48.532;8.722;2022-08-21T02:53:39;2.38;;;1.70;;
26588;SDS011;14235;48.532;8.722;2022-08-21T02:56:08;2.10;;;1.98;;
26588;SDS011;14235;48.532;8.722;2022-08-21T02:58:36;2.30;;;2.00;;
26588;SDS011;14235;48.532;8.722;2022-08-21T03:01:05;2.22;;;2.00;;
26588;SDS011;14235;48.532;8.722;2022-08-21T03:03:34;2.10;;;2.00;;
26588;SDS011;14235;48.532;8.722;2022-08-21T03:06:01;3.17;;;2.20;;
26588;SDS011;14235;48.532;8.722;2022-08-21T03:08:27;1.90;;;1.80;;
26588;SDS011;14235;48.532;8.722;2022-08-21T03:10:53;3.75;;;2.08;;
26588;SDS011;14235;48.532;8.722;2022-08-21T03:13:18;2.38;;;1.92;;
26588;SDS011;14235;48.532;8.722;2022-08-21T03:15:45;3.45;;;1.85;;
26588;SDS011;14235;48.532;8.722;2022-08-21T03:18:11;3.20;;;1.90;;
26588;SDS011;14235;48.532;8.722;2022-08-21T03:20:38;2.30;;;2.10;;
26588;SDS011;14235;48.532;8.722;2022-08-21T03:23:05;2.10;;;2.00;;
26588;SDS011;14235;48.532;8.722;2022-08-21T03:25:33;2.25;;;2.15;;
26588;SDS011;14235;48.532;8.722;2022-08-21T03:28:00;2.78;;;2.20;;
26588;SDS011;14235;48.532;8.722;2022-08-21T03:30:30;2.95;;;2.10;;
26588;SDS011;14235;48.532;8.722;2022-08-21T03:32:59;2.42;;;2.17;;
26588;SDS011;14235;48.532;8.722;2022-08-21T03:35:26;2.25;;;1.70;;
26588;SDS011;14235;48.532;8.722;2022-08-21T03:37:53;1.90;;;1.80;;
26588;SDS011;14235;48.532;8.722;2022-08-21T03:40:19;3.63;;;1.92;;
26588;SDS011;14235;48.532;8.722;2022-08-21T03:42:45;2.13;;;1.92;;
26588;SDS011;14235;48.532;8.722;2022-08-21T03:45:12;4.25;;;2.00;;
26588;SDS011;14235;48.532;8.722;2022-08-21T03:47:39;1.90;;;1.80;;
26588;SDS011;14235;48.532;8.722;2022-08-21T03:50:24;3.08;;;1.88;;
26588;SDS011;14235;48.532;8.722;2022-08-21T03:52:51;2.75;;;1.90;;
26588;SDS011;14235;48.532;8.722;2022-08-21T03:55:17;3.10;;;2.15;;
26588;SDS011;14235;48.532;8.722;2022-08-21T03:57:43;2.50;;;2.00;;
26588;SDS011;14235;48.532;8.722;2022-08-21T04:00:09;5.30;;;1.95;;
26588;SDS011;14235;48.532;8.722;2022-08-21T04:02:37;2.63;;;2.30;;
26588;SDS011;14235;48.532;8.722;2022-08-21T04:05:03;1.98;;;1.88;;
26588;SDS011;14235;48.532;8.722;2022-08-21T04:07:29;2.25;;;1.90;;
26588;SDS011;14235;48.532;8.722;2022-08-21T04:09:55;3.78;;;2.30;;
26588;SDS011;14235;48.532;8.722;2022-08-21T04:12:20;2.55;;;1.83;;
26588;SDS011;14235;48.532;8.722;2022-08-21T04:14:46;4.22;;;2.08;;
26588;SDS011;14235;48.532;8.722;2022-08-21T04:17:12;2.35;;;2.10;;
26588;SDS011;14235;48.532;8.722;2022-08-21T04:19:37;2.28;;;2.17;;
26588;SDS011;14235;48.532;8.722;2022-08-21T04:22:03;2.10;;;2.00;;
26588;SDS011;14235;48.532;8.722;2022-08-21T04:24:29;2.25;;;1.98;;
26588;SDS011;14235;48.532;8.722;2022-08-21T04:26:54;4.93;;;2.40;;
26588;SDS011;14235;48.532;8.722;2022-08-21T04:29:20;4.13;;;1.98;;
26588;SDS011;14235;48.532;8.722;2022-08-21T04:31:45;3.63;;;2.20;;
26588;SDS011;14235;48.532;8.722;2022-08-21T04:34:11;2.60;;;1.90;;
26588;SDS011;14235;48.532;8.722;2022-08-21T04:36:37;3.17;;;2.10;;
26588;SDS011;14235;48.532;8.722;2022-08-21T04:39:02;3.40;;;1.98;;
26588;SDS011;14235;48.532;8.722;2022-08-21T04:41:28;3.17;;;2.08;;
26588;SDS011;14235;48.532;8.722;2022-08-21T04:43:54;3.95;;;2.10;;
26588;SDS011;14235;48.532;8.722;2022-08-21T04:46:22;2.55;;;2.20;;
26588;SDS011;14235;48.532;8.722;2022-08-21T04:48:48;3.10;;;2.17;;
26588;SDS011;14235;48.532;8.722;2022-08-21T04:51:19;2.00;;;1.90;;
26588;SDS011;14235;48.532;8.722;2022-08-21T04:53:55;1.88;;;1.77;;
26588;SDS011;14235;48.532;8.722;2022-08-21T04:56:27;2.83;;;2.25;;
26588;SDS011;14235;48.532;8.722;2022-08-21T04:58:57;2.08;;;1.88;;
26588;SDS011;14235;48.532;8.722;2022-08-21T05:01:28;3.72;;;1.80;;
26588;SDS011;14235;48.532;8.722;2022-08-21T05:03:56;2.72;;;2.00;;
26588;SDS011;14235;48.532;8.722;2022-08-21T05:06:24;4.35;;;2.20;;
26588;SDS011;14235;48.532;8.722;2022-08-21T05:08:52;2.20;;;1.85;;
26588;SDS011;14235;48.532;8.722;2022-08-21T05:11:20;2.20;;;2.10;;
26588;SDS011;14235;48.532;8.722;2022-08-21T05:13:47;2.20;;;2.00;;
26588;SDS011;14235;48.532;8.722;2022-08-21T05:16:13;2.33;;;2.17;;
26588;SDS011;14235;48.532;8.722;2022-08-21T05:18:38;2.20;;;2.10;;
26588;SDS011;14235;48.532;8.722;2022-08-21T05:21:04;2.47;;;2.13;;
26588;SDS011;14235;48.532;8.722;2022-08-21T05:23:30;2.40;;;2.30;;
26588;SDS011;14235;48.532;8.722;2022-08-21T05:25:55;3.90;;;2.28;;
26588;SDS011;14235;48.532;8.722;2022-08-21T05:28:21;2.28;;;2.08;;
26588;SDS011;14235;48.532;8.722;2022-08-21T05:30:47;2.47;;;2.38;;
26588;SDS011;14235;48.532;8.722;2022-08-21T05:33:13;2.00;;;1.90;;
26588;SDS011;14235;48.532;8.722;2022-08-21T05:35:39;3.08;;;1.98;;
26588;SDS011;14235;48.532;8.722;2022-08-21T05:38:05;3.60;;;2.03;;
26588;SDS011;14235;48.532;8.722;2022-08-21T05:40:31;2.47;;;1.92;;
26588;SDS011;14235;48.532;8.722;2022-08-21T05:42:57;2.20;;;2.00;;
26588;SDS011;14235;48.532;8.722;2022-08-21T05:45:25;2.55;;;1.90;;
26588;SDS011;14235;48.532;8.722;2022-08-21T05:47:52;2.60;;;2.00;;
26588;SDS011;14235;48.532;8.722;2022-08-21T05:50:18;2.83;;;1.95;;
26588;SDS011;14235;48.532;8.722;2022-08-21T05:52:44;2.30;;;2.08;;
26588;SDS011;14235;48.532;8.722;2022-08-21T05:55:09;3.03;;;2.30;;
26588;SDS011;14235;48.532;8.722;2022-08-21T05:57:35;2.33;;;2.13;;
26588;SDS011;14235;48.532;8.722;2022-08-21T06:00:01;1.98;;;1.88;;
26588;SDS011;14235;48.532;8.722;2022-08-21T06:02:28;2.75;;;2.28;;
26588;SDS011;14235;48.532;8.722;2022-08-21T06:04:56;2.83;;;2.42;;
26588;SDS011;14235;48.532;8.722;2022-08-21T06:07:21;3.00;;;2.70;;
26588;SDS011;14235;48.532;8.722;2022-08-21T06:09:47;4.40;;;2.85;;
26588;SDS011;14235;48.532;8.722;2022-08-21T06:12:13;2.65;;;2.42;;
26588;SDS011;14235;48.532;8.722;2022-08-21T06:14:40;4.35;;;2.33;;
26588;SDS011;14235;48.532;8.722;2022-08-21T06:17:08;2.72;;;2.53;;
26588;SDS011;14235;48.532;8.722;2022-08-21T06:19:35;4.32;;;2.53;;
26588;SDS011;14235;48.532;8.722;2022-08-21T06:22:01;3.25;;;2.88;;
26588;SDS011;14235;48.532;8.722;2022-08-21T06:24:27;4.60;;;3.17;;
26588;SDS011;14235;48.532;8.722;2022-08-21T06:26:53;3.13;;;2.80;;
26588;SDS011;14235;48.532;8.722;2022-08-21T06:29:19;2.78;;;2.58;;
26588;SDS011;14235;48.532;8.722;2022-08-21T06:31:46;3.63;;;3.00;;
26588;SDS011;14235;48.532;8.722;2022-08-21T06:34:13;3.20;;;2.90;;
26588;SDS011;14235;48.532;8.722;2022-08-21T06:36:39;3.38;;;3.00;;
26588;SDS011;14235;48.532;8.722;2022-08-21T06:39:05;3.17;;;2.88;;
26588;SDS011;14235;48.532;8.722;2022-08-21T06:41:31;3.42;;;3.13;;
26588;SDS011;14235;48.532;8.722;2022-08-21T06:43:57;3.25;;;2.95;;
26588;SDS011;14235;48.532;8.722;2022-08-21T06:46:26;4.00;;;3.20;;
26588;SDS011;14235;48.532;8.722;2022-08-21T06:48:54;4.15;;;2.63;;
26588;SDS011;14235;48.532;8.722;2022-08-21T06:51:21;3.35;;;2.85;;
26588;SDS011;14235;48.532;8.722;2022-08-21T06:53:47;3.75;;;2.60;;
26588;SDS011;14235;48.532;8.722;2022-08-21T06:56:13;2.67;;;2.47;;
26588;SDS011;14235;48.532;8.722;2022-08-21T06:58:38;3.30;;;3.00;;
26588;SDS011;14235;48.532;8.722;2022-08-21T07:01:04;3.15;;;2.88;;
26588;SDS011;14235;48.532;8.722;2022-08-21T07:03:34;2.83;;;2.60;;
26588;SDS011;14235;48.532;8.722;2022-08-21T07:06:02;4.80;;;3.00;;
26588;SDS011;14235;48.532;8.722;2022-08-21T07:08:29;3.20;;;2.80;;
26588;SDS011;14235;48.532;8.722;2022-08-21T07:10:56;2.92;;;2.70;;
26588;SDS011;14235;48.532;8.722;2022-08-21T07:13:23;2.88;;;2.67;;
26588;SDS011;14235;48.532;8.722;2022-08-21T07:15:49;3.33;;;2.70;;
26588;SDS011;14235;48.532;8.722;2022-08-21T07:18:15;3.85;;;2.75;;
26588;SDS011;14235;48.532;8.722;2022-08-21T07:20:41;3.85;;;2.78;;
26588;SDS011;14235;48.532;8.722;2022-08-21T07:23:09;3.47;;;3.15;;
26588;SDS011;14235;48.532;8.722;2022-08-21T07:25:37;2.88;;;2.60;;
26588;SDS011;14235;48.532;8.722;2022-08-21T07:28:03;2.95;;;2.65;;
26588;SDS011;14235;48.532;8.722;2022-08-21T07:30:29;3.00;;;2.70;;
26588;SDS011;14235;48.532;8.722;2022-08-21T07:32:55;3.53;;;3.05;;
26588;SDS011;14235;48.532;8.722;2022-08-21T07:35:21;2.83;;;2.60;;
26588;SDS011;14235;48.532;8.722;2022-08-21T07:37:48;3.60;;;2.88;;
26588;SDS011;14235;48.532;8.722;2022-08-21T07:40:14;3.13;;;2.50;;
26588;SDS011;14235;48.532;8.722;2022-08-21T07:42:44;3.95;;;2.88;;
26588;SDS011;14235;48.532;8.722;2022-08-21T07:45:12;3.47;;;2.78;;
26588;SDS011;14235;48.532;8.722;2022-08-21T07:47:38;3.35;;;2.92;;
26588;SDS011;14235;48.532;8.722;2022-08-21T07:50:04;3.78;;;2.60;;
26588;SDS011;14235;48.532;8.722;2022-08-21T07:52:31;4.30;;;2.92;;
26588;SDS011;14235;48.532;8.722;2022-08-21T07:54:57;3.58;;;2.90;;
26588;SDS011;14235;48.532;8.722;2022-08-21T07:57:23;6.18;;;3.35;;
26588;SDS011;14235;48.532;8.722;2022-08-21T07:59:48;3.97;;;2.92;;
26588;SDS011;14235;48.532;8.722;2022-08-21T08:02:21;3.92;;;2.83;;
26588;SDS011;14235;48.532;8.722;2022-08-21T08:04:50;8.02;;;3.20;;
26588;SDS011;14235;48.532;8.722;2022-08-21T08:07:16;4.25;;;3.08;;
26588;SDS011;14235;48.532;8.722;2022-08-21T08:09:43;5.03;;;3.33;;
26588;SDS011;14235;48.532;8.722;2022-08-21T08:12:09;4.47;;;3.20;;
26588;SDS011;14235;48.532;8.722;2022-08-21T08:14:35;6.35;;;3.50;;
26588;SDS011;14235;48.532;8.722;2022-08-21T08:17:02;3.95;;;3.40;;
26588;SDS011;14235;48.532;8.722;2022-08-21T08:19:28;5.93;;;3.05;;
26588;SDS011;14235;48.532;8.722;2022-08-21T08:21:54;3.53;;;3.13;;
26588;SDS011;14235;48.532;8.722;2022-08-21T08:24:20;3.88;;;3.08;;
26588;SDS011;14235;48.532;8.722;2022-08-21T08:26:46;3.70;;;2.85;;
26588;SDS011;14235;48.532;8.722;2022-08-21T08:29:13;7.15;;;3.50;;
26588;SDS011;14235;48.532;8.722;2022-08-21T08:31:38;4.30;;;2.97;;
26588;SDS011;14235;48.532;8.722;2022-08-21T08:34:04;7.10;;;3.30;;
26588;SDS011;14235;48.532;8.722;2022-08-21T08:36:34;7.32;;;3.40;;
26588;SDS011;14235;48.532;8.722;2022-08-21T08:39:02;3.92;;;2.90;;
26588;SDS011;14235;48.532;8.722;2022-08-21T08:41:28;6.28;;;2.90;;
26588;SDS011;14235;48.532;8.722;2022-08-21T08:43:55;4.05;;;3.28;;
26588;SDS011;14235;48.532;8.722;2022-08-21T08:46:29;4.50;;;2.95;;
26588;SDS011;14235;48.532;8.722;2022-08-21T08:52:11;4.95;;;3.35;;
26588;SDS011;14235;48.532;8.722;2022-08-21T08:55:23;4.63;;;3.22;;
26588;SDS011;14235;48.532;8.722;2022-08-21T08:57:31;4.25;;;3.20;;
26588;SDS011;14235;48.532;8.722;2022-08-21T08:59:59;5.68;;;3.42;;
26588;SDS011;14235;48.532;8.722;2022-08-21T09:02:27;5.40;;;3.22;;
26588;SDS011;14235;48.532;8.722;2022-08-21T09:04:53;5.22;;;3.20;;
26588;SDS011;14235;48.532;8.722;2022-08-21T09:07:30;3.65;;;2.92;;
26588;SDS011;14235;48.532;8.722;2022-08-21T09:10:09;6.05;;;3.42;;
26588;SDS011;14235;48.532;8.722;2022-08-21T09:12:52;4.93;;;3.13;;
26588;SDS011;14235;48.532;8.722;2022-08-21T09:15:50;6.00;;;3.38;;
26588;SDS011;14235;48.532;8.722;2022-08-21T09:18:45;5.55;;;3.13;;
26588;SDS011;14235;48.532;8.722;2022-08-21T09:26:30;4.43;;;3.17;;
26588;SDS011;14235;48.532;8.722;2022-08-21T09:29:05;3.90;;;2.88;;
26588;SDS011;14235;48.532;8.722;2022-08-21T09:31:35;6.75;;;3.10;;
26588;SDS011;14235;48.532;8.722;2022-08-21T09:34:06;4.80;;;2.80;;
26588;SDS011;14235;48.532;8.722;2022-08-21T09:36:43;4.47;;;2.75;;
26588;SDS011;14235;48.532;8.722;2022-08-21T09:39:13;4.45;;;3.33;;
26588;SDS011;14235;48.532;8.722;2022-08-21T09:42:10;4.65;;;2.80;;
26588;SDS011;14235;48.532;8.722;2022-08-21T09:44:36;4.07;;;3.00;;
26588;SDS011;14235;48.532;8.722;2022-08-21T09:47:05;3.53;;;2.90;;
26588;SDS011;14235;48.532;8.722;2022-08-21T09:49:38;6.43;;;2.85;;
26588;SDS011;14235;48.532;8.722;2022-08-21T09:52:41;4.13;;;2.92;;
26588;SDS011;14235;48.532;8.722;2022-08-21T09:54:57;5.20;;;3.25;;
26588;SDS011;14235;48.532;8.722;2022-08-21T09:57:24;4.78;;;3.15;;
26588;SDS011;14235;48.532;8.722;2022-08-21T10:00:08;3.05;;;2.38;;
26588;SDS011;14235;48.532;8.722;2022-08-21T10:02:35;4.38;;;2.80;;
26588;SDS011;14235;48.532;8.722;2022-08-21T10:05:06;7.82;;;2.80;;
26588;SDS011;14235;48.532;8.722;2022-08-21T10:07:40;6.97;;;2.88;;
26588;SDS011;14235;48.532;8.722;2022-08-21T10:10:26;4.03;;;2.58;;
26588;SDS011;14235;48.532;8.722;2022-08-21T10:13:05;3.22;;;2.65;;
26588;SDS011;14235;48.532;8.722;2022-08-21T10:26:11;5.13;;;3.05;;
26588;SDS011;14235;48.532;8.722;2022-08-21T10:28:37;7.50;;;3.30;;
26588;SDS011;14235;48.532;8.722;2022-08-21T10:31:14;4.68;;;2.90;;
26588;SDS011;14235;48.532;8.722;2022-08-21T10:36:33;3.75;;;2.80;;
26588;SDS011;14235;48.532;8.722;2022-08-21T10:41:43;5.03;;;2.45;;
26588;SDS011;14235;48.532;8.722;2022-08-21T10:56:58;5.82;;;2.70;;
26588;SDS011;14235;48.532;8.722;2022-08-21T11:02:22;4.60;;;2.78;;
26588;SDS011;14235;48.532;8.722;2022-08-21T11:05:10;4.32;;;2.83;;
26588;SDS011;14235;48.532;8.722;2022-08-21T11:07:45;3.67;;;2.88;;
26588;SDS011;14235;48.532;8.722;2022-08-21T11:10:14;7.80;;;3.97;;
26588;SDS011;14235;48.532;8.722;2022-08-21T11:12:54;3.60;;;3.08;;
26588;SDS011;14235;48.532;8.722;2022-08-21T11:26:51;3.95;;;2.75;;
26588;SDS011;14235;48.532;8.722;2022-08-21T11:29:42;4.88;;;2.53;;
26588;SDS011;14235;48.532;8.722;2022-08-21T11:45:43;3.72;;;2.63;;
26588;SDS011;14235;48.532;8.722;2022-08-21T11:50:58;3.38;;;2.35;;
26588;SDS011;14235;48.532;8.722;2022-08-21T11:53:33;3.20;;;2.47;;
26588;SDS011;14235;48.532;8.722;2022-08-21T11:56:13;3.70;;;2.47;;
26588;SDS011;14235;48.532;8.722;2022-08-21T11:58:47;2.58;;;2.38;;
26588;SDS011;14235;48.532;8.722;2022-08-21T12:01:28;3.42;;;2.38;;
26588;SDS011;14235;48.532;8.722;2022-08-21T12:04:01;2.80;;;2.33;;
26588;SDS011;14235;48.532;8.722;2022-08-21T12:06:38;3.88;;;2.55;;
26588;SDS011;14235;48.532;8.722;2022-08-21T12:09:09;2.55;;;2.35;;
26588;SDS011;14235;48.532;8.722;2022-08-21T12:12:05;3.53;;;2.65;;
26588;SDS011;14235;48.532;8.722;2022-08-21T12:14:37;2.58;;;2.38;;
26588;SDS011;14235;48.532;8.722;2022-08-21T12:17:15;2.60;;;2.35;;
26588;SDS011;14235;48.532;8.722;2022-08-21T12:20:00;2.55;;;2.08;;
26588;SDS011;14235;48.532;8.722;2022-08-21T12:22:49;3.33;;;2.30;;
26588;SDS011;14235;48.532;8.722;2022-08-21T12:25:47;3.65;;;2.20;;
26588;SDS011;14235;48.532;8.722;2022-08-21T12:28:34;2.42;;;2.20;;
26588;SDS011;14235;48.532;8.722;2022-08-21T12:31:00;2.83;;;2.38;;
26588;SDS011;14235;48.532;8.722;2022-08-21T12:33:27;3.03;;;2.38;;
26588;SDS011;14235;48.532;8.722;2022-08-21T12:38:43;3.70;;;2.40;;
26588;SDS011;14235;48.532;8.722;2022-08-21T12:41:18;2.83;;;2.55;;
26588;SDS011;14235;48.532;8.722;2022-08-21T12:43:52;3.10;;;2.20;;
26588;SDS011;14235;48.532;8.722;2022-08-21T12:46:21;2.95;;;2.50;;
26588;SDS011;14235;48.532;8.722;2022-08-21T12:48:56;2.35;;;2.25;;
26588;SDS011;14235;48.532;8.722;2022-08-21T12:51:31;2.53;;;2.33;;
26588;SDS011;14235;48.532;8.722;2022-08-21T12:53:59;3.53;;;2.30;;
26588;SDS011;14235;48.532;8.722;2022-08-21T12:56:27;3.10;;;2.47;;
26588;SDS011;14235;48.532;8.722;2022-08-21T12:58:57;2.55;;;2.30;;
26588;SDS011;14235;48.532;8.722;2022-08-21T13:01:29;4.80;;;2.22;;
26588;SDS011;14235;48.532;8.722;2022-08-21T13:04:00;3.00;;;2.40;;
26588;SDS011;14235;48.532;8.722;2022-08-21T13:06:28;3.45;;;2.40;;
26588;SDS011;14235;48.532;8.722;2022-08-21T13:08:57;2.35;;;2.15;;
26588;SDS011;14235;48.532;8.722;2022-08-21T13:11:24;2.50;;;2.30;;
26588;SDS011;14235;48.532;8.722;2022-08-21T13:13:53;3.08;;;2.40;;
26588;SDS011;14235;48.532;8.722;2022-08-21T13:16:24;3.38;;;2.20;;
26588;SDS011;14235;48.532;8.722;2022-08-21T13:18:54;2.83;;;2.40;;
26588;SDS011;14235;48.532;8.722;2022-08-21T13:21:29;2.53;;;2.30;;
26588;SDS011;14235;48.532;8.722;2022-08-21T13:24:13;3.33;;;2.40;;
26588;SDS011;14235;48.532;8.722;2022-08-21T13:26:48;2.30;;;2.13;;
26588;SDS011;14235;48.532;8.722;2022-08-21T13:29:16;2.58;;;2.33;;
26588;SDS011;14235;48.532;8.722;2022-08-21T13:31:51;2.25;;;2.05;;
26588;SDS011;14235;48.532;8.722;2022-08-21T13:34:24;2.42;;;2.22;;
26588;SDS011;14235;48.532;8.722;2022-08-21T13:36:54;2.40;;;2.20;;
26588;SDS011;14235;48.532;8.722;2022-08-21T13:39:23;2.30;;;2.10;;
26588;SDS011;14235;48.532;8.722;2022-08-21T13:41:50;2.25;;;2.00;;
26588;SDS011;14235;48.532;8.722;2022-08-21T13:44:24;2.67;;;2.30;;
26588;SDS011;14235;48.532;8.722;2022-08-21T13:47:00;2.28;;;2.08;;
26588;SDS011;14235;48.532;8.722;2022-08-21T13:49:35;2.92;;;2.08;;
26588;SDS011;14235;48.532;8.722;2022-08-21T13:52:03;2.58;;;2.22;;
26588;SDS011;14235;48.532;8.722;2022-08-21T13:54:39;2.25;;;2.15;;
26588;SDS011;14235;48.532;8.722;2022-08-21T13:57:15;4.28;;;2.28;;
26588;SDS011;14235;48.532;8.722;2022-08-21T13:59:41;2.88;;;2.33;;
26588;SDS011;14235;48.532;8.722;2022-08-21T14:02:14;2.63;;;2.20;;
26588;SDS011;14235;48.532;8.722;2022-08-21T14:04:48;3.20;;;2.28;;
26588;SDS011;14235;48.532;8.722;2022-08-21T14:07:17;2.13;;;1.92;;
26588;SDS011;14235;48.532;8.722;2022-08-21T14:09:45;3.08;;;2.20;;
26588;SDS011;14235;48.532;8.722;2022-08-21T14:12:13;2.40;;;2.20;;
26588;SDS011;14235;48.532;8.722;2022-08-21T14:14:40;2.40;;;2.20;;
26588;SDS011;14235;48.532;8.722;2022-08-21T14:17:08;3.50;;;2.15;;
26588;SDS011;14235;48.532;8.722;2022-08-21T14:24:48;2.58;;;2.30;;
26588;SDS011;14235;48.532;8.722;2022-08-21T14:27:16;2.50;;;2.30;;
26588;SDS011;14235;48.532;8.722;2022-08-21T14:29:42;4.70;;;2.70;;
26588;SDS011;14235;48.532;8.722;2022-08-21T14:32:15;2.38;;;1.92;;
26588;SDS011;14235;48.532;8.722;2022-08-21T14:34:45;2.35;;;2.13;;
26588;SDS011;14235;48.532;8.722;2022-08-21T14:37:11;2.92;;;2.60;;
26588;SDS011;14235;48.532;8.722;2022-08-21T14:39:37;4.05;;;2.83;;
26588;SDS011;14235;48.532;8.722;2022-08-21T14:42:03;3.03;;;2.53;;
26588;SDS011;14235;48.532;8.722;2022-08-21T14:44:29;2.90;;;2.55;;
26588;SDS011;14235;48.532;8.722;2022-08-21T14:46:56;2.72;;;2.50;;
26588;SDS011;14235;48.532;8.722;2022-08-21T14:49:24;2.70;;;2.50;;
26588;SDS011;14235;48.532;8.722;2022-08-21T14:51:52;5.35;;;2.47;;
26588;SDS011;14235;48.532;8.722;2022-08-21T14:54:21;2.28;;;2.08;;
26588;SDS011;14235;48.532;8.722;2022-08-21T14:56:51;4.35;;;2.50;;
26588;SDS011;14235;48.532;8.722;2022-08-21T14:59:17;2.80;;;2.40;;
26588;SDS011;14235;48.532;8.722;2022-08-21T15:01:44;2.92;;;2.35;;
26588;SDS011;14235;48.532;8.722;2022-08-21T15:04:10;5.95;;;3.10;;
26588;SDS011;14235;48.532;8.722;2022-08-21T15:06:36;6.15;;;5.55;;
26588;SDS011;14235;48.532;8.722;2022-08-21T15:09:01;2.65;;;2.45;;
26588;SDS011;14235;48.532;8.722;2022-08-21T15:11:30;7.13;;;6.43;;
26588;SDS011;14235;48.532;8.722;2022-08-21T15:13:56;12.55;;;11.35;;
26588;SDS011;14235;48.532;8.722;2022-08-21T15:16:23;6.60;;;5.43;;
26588;SDS011;14235;48.532;8.722;2022-08-21T15:18:49;5.18;;;4.50;;
26588;SDS011;14235;48.532;8.722;2022-08-21T15:21:15;2.70;;;2.50;;
26588;SDS011;14235;48.532;8.722;2022-08-21T15:23:40;3.72;;;3.42;;
26588;SDS011;14235;48.532;8.722;2022-08-21T15:26:06;2.80;;;2.60;;
26588;SDS011;14235;48.532;8.722;2022-08-21T15:28:33;3.00;;;2.70;;
26588;SDS011;14235;48.532;8.722;2022-08-21T15:31:00;3.58;;;2.30;;
26588;SDS011;14235;48.532;8.722;2022-08-21T15:33:26;3.88;;;2.72;;
26588;SDS011;14235;48.532;8.722;2022-08-21T15:35:52;4.60;;;2.80;;
26588;SDS011;14235;48.532;8.722;2022-08-21T15:38:17;2.42;;;2.22;;
26588;SDS011;14235;48.532;8.722;2022-08-21T15:40:43;2.33;;;2.13;;
26588;SDS011;14235;48.532;8.722;2022-08-21T15:43:15;2.40;;;2.20;;
26588;SDS011;14235;48.532;8.722;2022-08-21T15:45:44;3.63;;;2.10;;
26588;SDS011;14235;48.532;8.722;2022-08-21T15:48:09;2.50;;;2.30;;
26588;SDS011;14235;48.532;8.722;2022-08-21T15:50:35;4.18;;;2.05;;
26588;SDS011;14235;48.532;8.722;2022-08-21T15:53:01;2.83;;;2.35;;
26588;SDS011;14235;48.532;8.722;2022-08-21T15:55:28;2.92;;;2.15;;
26588;SDS011;14235;48.532;8.722;2022-08-21T15:57:54;2.97;;;2.40;;
26588;SDS011;14235;48.532;8.722;2022-08-21T16:00:21;2.70;;;2.50;;
26588;SDS011;14235;48.532;8.722;2022-08-21T16:02:50;7.20;;;2.80;;
26588;SDS011;14235;48.532;8.722;2022-08-21T16:05:18;3.05;;;2.65;;
26588;SDS011;14235;48.532;8.722;2022-08-21T16:07:45;4.82;;;2.88;;
26588;SDS011;14235;48.532;8.722;2022-08-21T16:10:12;4.75;;;2.72;;
26588;SDS011;14235;48.532;8.722;2022-08-21T16:12:40;2.75;;;2.55;;